createdAt,value
2018-12-03T00:01:19.394Z,10.30
2018-12-03T00:03:47.828Z,10.30
2018-12-03T00:06:16.037Z,10.20
2018-12-03T00:08:44.226Z,10.30
2018-12-03T00:11:12.602Z,10.20
2018-12-03T00:13:40.834Z,10.20
2018-12-03T00:16:09.199Z,10.20
2018-12-03T00:18:37.408Z,10.30
2018-12-03T00:21:05.971Z,10.30
2018-12-03T00:23:34.195Z,10.30
2018-12-03T00:26:02.682Z,10.30
2018-12-03T00:28:30.886Z,10.20
2018-12-03T00:30:59.072Z,10.20
2018-12-03T00:33:28.492Z,10.20
2018-12-03T00:35:56.693Z,10.20
2018-12-03T00:38:24.911Z,10.30
2018-12-03T00:40:53.377Z,10.40
2018-12-03T00:43:21.634Z,10.40
2018-12-03T00:45:52.987Z,10.40
2018-12-03T00:48:21.306Z,10.40
2018-12-03T00:50:49.549Z,10.50
2018-12-03T00:53:18.300Z,10.60
2018-12-03T00:55:46.518Z,10.60
2018-12-03T00:58:14.722Z,10.60
2018-12-03T01:00:42.942Z,10.60
2018-12-03T01:03:11.196Z,10.70
2018-12-03T01:05:39.379Z,10.70
2018-12-03T01:08:07.866Z,10.60
2018-12-03T01:10:36.049Z,10.60
2018-12-03T01:13:04.353Z,10.60
2018-12-03T01:15:32.580Z,10.60
2018-12-03T01:18:00.787Z,10.60
2018-12-03T01:20:29.022Z,10.60
2018-12-03T01:22:57.310Z,10.60
2018-12-03T01:25:25.529Z,10.60
2018-12-03T01:27:53.706Z,10.60
2018-12-03T01:30:22.001Z,10.60
2018-12-03T01:32:50.223Z,10.60
2018-12-03T01:35:18.422Z,10.60
2018-12-03T01:37:46.988Z,10.60
2018-12-03T01:40:15.249Z,10.60
2018-12-03T01:42:43.470Z,10.60
2018-12-03T01:45:12.656Z,10.60
2018-12-03T01:47:41.762Z,10.60
2018-12-03T01:50:12.077Z,10.60
2018-12-03T01:52:40.306Z,10.60
2018-12-03T01:55:09.582Z,10.60
2018-12-03T01:57:38.032Z,10.60
2018-12-03T02:00:11.060Z,10.60
2018-12-03T02:02:39.262Z,10.60
2018-12-03T02:05:08.528Z,10.60
2018-12-03T02:07:36.949Z,10.60
2018-12-03T02:10:07.910Z,10.60
2018-12-03T02:12:36.135Z,10.60
2018-12-03T02:15:04.891Z,10.60
2018-12-03T02:17:33.121Z,10.50
2018-12-03T02:20:01.354Z,10.50
2018-12-03T02:22:29.510Z,10.50
2018-12-03T02:24:57.698Z,10.40
2018-12-03T02:27:25.962Z,10.40
2018-12-03T02:29:54.142Z,10.40
2018-12-03T02:32:22.365Z,10.40
2018-12-03T02:34:50.576Z,10.50
2018-12-03T02:37:18.803Z,10.50
2018-12-03T02:39:46.985Z,10.40
2018-12-03T02:42:15.182Z,10.40
2018-12-03T02:44:43.375Z,10.40
2018-12-03T02:47:11.619Z,10.40
2018-12-03T02:49:39.822Z,10.40
2018-12-03T02:52:08.526Z,10.40
2018-12-03T02:54:36.713Z,10.50
2018-12-03T02:57:04.932Z,10.50
2018-12-03T02:59:33.144Z,10.50
2018-12-03T03:02:01.338Z,10.50
2018-12-03T03:04:29.571Z,10.40
2018-12-03T03:06:57.789Z,10.40
2018-12-03T03:09:38.078Z,10.40
2018-12-03T03:12:06.642Z,10.50
2018-12-03T03:14:34.866Z,10.50
2018-12-03T03:17:03.102Z,10.40
2018-12-03T03:19:31.314Z,10.40
2018-12-03T03:21:59.509Z,10.40
2018-12-03T03:24:31.549Z,10.40
2018-12-03T03:26:59.750Z,10.40
2018-12-03T03:29:27.922Z,10.40
2018-12-03T03:31:56.166Z,10.30
2018-12-03T03:34:24.397Z,10.30
2018-12-03T03:36:52.633Z,10.30
2018-12-03T03:39:20.817Z,10.20
2018-12-03T03:41:51.826Z,10.10
2018-12-03T03:44:20.098Z,10.20
2018-12-03T03:46:48.296Z,10.20
2018-12-03T03:49:17.394Z,10.20
2018-12-03T03:51:45.597Z,10.30
2018-12-03T03:54:17.426Z,10.30
2018-12-03T03:56:45.642Z,10.30
2018-12-03T03:59:13.858Z,10.30
2018-12-03T04:01:42.933Z,10.30
2018-12-03T04:04:11.154Z,10.40
2018-12-03T04:06:39.349Z,10.40
2018-12-03T04:09:10.657Z,10.40
2018-12-03T04:11:38.913Z,10.50
2018-12-03T04:14:08.022Z,10.50
2018-12-03T04:16:36.231Z,10.50
2018-12-03T04:19:04.703Z,10.60
2018-12-03T04:21:32.935Z,10.70
2018-12-03T04:24:01.298Z,10.70
2018-12-03T04:26:29.471Z,10.60
2018-12-03T04:28:57.650Z,10.70
2018-12-03T04:31:25.866Z,10.70
2018-12-03T04:33:54.079Z,10.60
2018-12-03T04:36:22.413Z,10.60
2018-12-03T04:38:50.688Z,10.60
2018-12-03T04:41:18.943Z,10.60
2018-12-03T04:43:47.163Z,10.60
2018-12-03T04:46:15.401Z,10.60
2018-12-03T04:48:43.640Z,10.60
2018-12-03T04:51:11.943Z,10.60
2018-12-03T04:53:40.163Z,10.60
2018-12-03T04:56:08.510Z,10.60
2018-12-03T04:58:36.706Z,10.60
2018-12-03T05:01:05.494Z,10.60
2018-12-03T05:03:33.710Z,10.60
2018-12-03T05:06:01.923Z,10.60
2018-12-03T05:08:30.125Z,10.50
2018-12-03T05:11:01.624Z,10.50
2018-12-03T05:13:29.847Z,10.50
2018-12-03T05:15:58.482Z,10.50
2018-12-03T05:18:26.748Z,10.50
2018-12-03T05:20:55.057Z,10.50
2018-12-03T05:23:23.345Z,10.50
2018-12-03T05:25:55.229Z,10.60
2018-12-03T05:28:23.446Z,10.60
2018-12-03T05:30:51.646Z,10.60
2018-12-03T05:33:19.856Z,10.60
2018-12-03T05:35:48.055Z,10.60
2018-12-03T05:38:16.658Z,10.60
2018-12-03T05:40:51.290Z,10.60
2018-12-03T05:43:19.515Z,10.60
2018-12-03T05:45:47.693Z,10.50
2018-12-03T05:50:50.493Z,10.50
2018-12-03T05:53:18.770Z,10.50
2018-12-03T05:55:54.574Z,10.60
2018-12-03T05:58:22.950Z,10.60
2018-12-03T06:00:51.146Z,10.70
2018-12-03T06:03:19.505Z,10.70
2018-12-03T06:05:47.694Z,10.70
2018-12-03T06:08:15.869Z,10.70
2018-12-03T06:10:44.125Z,10.70
2018-12-03T06:13:12.390Z,10.70
2018-12-03T06:15:40.614Z,10.80
2018-12-03T06:18:08.887Z,10.80
2018-12-03T06:20:37.078Z,10.80
2018-12-03T06:23:05.800Z,10.80
2018-12-03T06:25:34.046Z,10.80
2018-12-03T06:28:02.323Z,10.80
2018-12-03T06:30:30.505Z,10.90
2018-12-03T06:32:58.682Z,10.90
2018-12-03T06:35:27.847Z,10.90
2018-12-03T06:37:56.049Z,10.90
2018-12-03T06:40:25.858Z,11.00
2018-12-03T06:42:54.133Z,11.00
2018-12-03T06:45:23.785Z,11.00
2018-12-03T06:48:11.934Z,11.00
2018-12-03T06:50:40.624Z,10.90
2018-12-03T06:53:08.931Z,10.90
2018-12-03T06:55:37.173Z,10.90
2018-12-03T06:58:06.611Z,10.90
2018-12-03T07:00:34.872Z,10.90
2018-12-03T07:03:03.393Z,10.80
2018-12-03T07:05:31.597Z,10.80
2018-12-03T07:08:00.593Z,10.80
2018-12-03T07:10:28.873Z,10.80
2018-12-03T07:13:03.433Z,10.80
2018-12-03T07:15:34.661Z,10.80
2018-12-03T07:18:02.918Z,10.80
2018-12-03T07:20:31.141Z,10.80
2018-12-03T07:22:59.418Z,10.80
2018-12-03T07:25:27.672Z,10.80
2018-12-03T07:27:55.864Z,10.80
2018-12-03T07:30:25.223Z,10.90
2018-12-03T07:32:53.674Z,10.90
2018-12-03T07:35:23.139Z,10.90
2018-12-03T07:37:53.502Z,10.90
2018-12-03T07:40:29.340Z,10.90
2018-12-03T07:42:57.555Z,10.90
2018-12-03T07:45:26.263Z,10.90
2018-12-03T07:47:54.478Z,10.90
2018-12-03T07:50:24.272Z,10.90
2018-12-03T07:52:52.670Z,10.90
2018-12-03T07:55:28.174Z,10.90
2018-12-03T07:58:00.994Z,10.90
2018-12-03T08:00:31.377Z,10.80
2018-12-03T08:02:59.565Z,10.80
2018-12-03T08:05:27.859Z,10.70
2018-12-03T08:07:56.041Z,10.70
2018-12-03T08:10:24.303Z,10.70
2018-12-03T08:12:52.910Z,10.70
2018-12-03T08:15:21.190Z,10.60
2018-12-03T08:17:54.038Z,10.60
2018-12-03T08:20:24.138Z,10.60
2018-12-03T08:22:55.538Z,10.50
2018-12-03T08:25:24.739Z,10.50
2018-12-03T08:27:53.015Z,10.50
2018-12-03T08:30:21.377Z,10.50
2018-12-03T08:32:49.653Z,10.50
2018-12-03T08:35:18.483Z,10.50
2018-12-03T08:37:46.795Z,10.50
2018-12-03T08:40:19.155Z,10.50
2018-12-03T08:42:48.797Z,10.50
2018-12-03T08:45:17.122Z,10.60
2018-12-03T08:47:45.727Z,10.70
2018-12-03T08:50:29.964Z,10.90
2018-12-03T08:52:58.826Z,10.90
2018-12-03T08:55:27.077Z,10.90
2018-12-03T08:57:55.665Z,10.90
2018-12-03T09:00:26.346Z,11.00
2018-12-03T09:02:57.298Z,10.90
2018-12-03T09:05:27.040Z,10.90
2018-12-03T09:07:55.353Z,10.80
2018-12-03T09:10:23.606Z,10.60
2018-12-03T09:12:51.786Z,10.60
2018-12-03T09:15:23.322Z,10.60
2018-12-03T09:17:51.613Z,10.60
2018-12-03T09:20:20.721Z,10.60
2018-12-03T09:22:48.904Z,10.60
2018-12-03T09:25:23.918Z,10.70
2018-12-03T09:27:52.287Z,10.80
2018-12-03T09:30:27.832Z,10.80
2018-12-03T09:32:54.238Z,10.90
2018-12-03T09:35:22.452Z,11.00
2018-12-03T09:37:50.648Z,11.10
2018-12-03T09:40:21.550Z,11.10
2018-12-03T09:42:49.921Z,11.20
2018-12-03T09:45:18.569Z,11.50
2018-12-03T09:47:48.170Z,11.70
2018-12-03T09:50:21.398Z,11.90
2018-12-03T09:52:49.771Z,12.10
2018-12-03T09:55:20.713Z,12.20
2018-12-03T09:57:56.375Z,12.10
2018-12-03T10:00:28.295Z,12.00
2018-12-03T10:02:58.957Z,11.90
2018-12-03T10:05:29.855Z,11.90
2018-12-03T10:07:58.379Z,12.10
2018-12-03T10:10:26.727Z,12.30
2018-12-03T10:12:55.871Z,12.60
2018-12-03T10:15:31.610Z,12.90
2018-12-03T10:17:59.850Z,13.10
2018-12-03T10:20:28.168Z,13.10
2018-12-03T10:22:57.053Z,13.00
2018-12-03T10:25:25.483Z,13.00
2018-12-03T10:27:59.265Z,13.00
2018-12-03T10:30:31.381Z,13.00
2018-12-03T10:32:59.661Z,13.00
2018-12-03T10:35:34.797Z,12.90
2018-12-03T10:38:14.490Z,12.80
2018-12-03T10:40:47.495Z,12.80
2018-12-03T10:43:16.650Z,12.80
2018-12-03T10:45:48.405Z,12.90
2018-12-03T10:48:17.845Z,13.00
2018-12-03T10:50:46.126Z,13.10
2018-12-03T10:53:14.358Z,13.30
2018-12-03T10:55:43.704Z,13.30
2018-12-03T10:58:14.697Z,13.20
2018-12-03T11:00:52.522Z,13.20
2018-12-03T11:03:25.923Z,13.00
2018-12-03T11:06:00.761Z,12.90
2018-12-03T11:08:29.274Z,12.70
2018-12-03T11:10:57.257Z,12.70
2018-12-03T11:13:25.919Z,12.70
2018-12-03T11:15:54.142Z,12.70
2018-12-03T11:18:22.391Z,12.70
2018-12-03T11:20:50.664Z,12.80
2018-12-03T11:23:21.458Z,12.80
2018-12-03T11:25:49.762Z,12.80
2018-12-03T11:28:18.957Z,12.80
2018-12-03T11:30:53.190Z,12.80
2018-12-03T11:33:24.157Z,12.80
2018-12-03T11:35:53.987Z,12.70
2018-12-03T11:38:28.551Z,12.70
2018-12-03T11:40:57.411Z,12.70
2018-12-03T11:43:27.455Z,12.60
2018-12-03T11:45:55.728Z,12.70
2018-12-03T11:48:23.915Z,12.70
2018-12-03T11:50:52.100Z,12.60
2018-12-03T11:53:20.337Z,12.60
2018-12-03T11:55:48.583Z,12.50
2018-12-03T11:58:16.886Z,12.50
2018-12-03T12:00:45.116Z,12.40
2018-12-03T12:03:13.306Z,12.40
2018-12-03T12:05:41.539Z,12.30
2018-12-03T12:08:10.046Z,12.30
2018-12-03T12:10:38.256Z,12.30
2018-12-03T12:13:06.538Z,12.30
2018-12-03T12:15:34.732Z,12.30
2018-12-03T12:18:02.945Z,12.30
2018-12-03T12:20:31.203Z,12.40
2018-12-03T12:22:59.484Z,12.40
2018-12-03T12:25:27.850Z,12.40
2018-12-03T12:27:57.682Z,12.30
2018-12-03T12:30:25.924Z,12.30
2018-12-03T12:32:54.126Z,12.30
2018-12-03T12:35:22.370Z,12.30
2018-12-03T12:37:56.623Z,12.30
2018-12-03T12:40:18.941Z,12.20
2018-12-03T12:42:47.521Z,12.30
2018-12-03T12:45:24.598Z,12.40
2018-12-03T12:47:57.253Z,12.50
2018-12-03T12:50:25.533Z,12.60
2018-12-03T12:52:53.958Z,12.70
2018-12-03T12:55:22.186Z,12.70
2018-12-03T12:57:50.396Z,12.60
2018-12-03T13:00:18.709Z,12.60
2018-12-03T13:02:49.122Z,12.70
2018-12-03T13:05:17.472Z,12.80
2018-12-03T13:07:45.669Z,12.80
2018-12-03T13:10:15.482Z,12.70
2018-12-03T13:12:45.479Z,12.60
2018-12-03T13:15:14.317Z,12.50
2018-12-03T13:17:44.649Z,12.40
2018-12-03T13:20:14.425Z,12.30
2018-12-03T13:22:42.611Z,12.20
2018-12-03T13:25:13.397Z,12.00
2018-12-03T13:27:41.616Z,11.90
2018-12-03T13:30:13.299Z,11.80
2018-12-03T13:32:41.630Z,11.70
2018-12-03T13:35:11.262Z,11.60
2018-12-03T13:37:39.938Z,11.50
2018-12-03T13:40:10.304Z,11.40
2018-12-03T13:42:38.529Z,11.30
2018-12-03T13:45:09.602Z,11.20
2018-12-03T13:47:37.806Z,11.10
2018-12-03T13:50:08.286Z,11.10
2018-12-03T13:52:36.502Z,11.00
2018-12-03T13:55:06.529Z,10.90
2018-12-03T13:57:34.867Z,10.80
2018-12-03T14:00:03.545Z,10.70
2018-12-03T14:02:31.799Z,10.60
2018-12-03T14:05:00.018Z,10.60
2018-12-03T14:07:34.471Z,10.50
2018-12-03T14:11:16.907Z,10.40
2018-12-03T14:14:28.825Z,10.40
2018-12-03T14:18:08.765Z,10.30
2018-12-03T14:20:40.176Z,10.30
2018-12-03T14:23:11.839Z,10.20
2018-12-03T14:25:40.075Z,10.20
2018-12-03T14:28:08.304Z,10.30
2018-12-03T14:30:36.569Z,10.30
2018-12-03T14:33:05.318Z,10.30
2018-12-03T14:35:34.126Z,10.30
2018-12-03T14:38:02.598Z,10.30
2018-12-03T14:40:30.783Z,10.20
2018-12-03T14:42:58.976Z,10.30
2018-12-03T14:45:27.303Z,10.30
2018-12-03T14:47:55.513Z,10.30
2018-12-03T14:50:27.109Z,10.20
2018-12-03T14:52:55.330Z,10.20
2018-12-03T14:55:26.005Z,10.20
2018-12-03T14:57:54.652Z,10.20
2018-12-03T15:00:22.955Z,10.20
2018-12-03T15:02:51.178Z,10.20
2018-12-03T15:05:19.475Z,10.10
2018-12-03T15:07:47.821Z,10.10
2018-12-03T15:10:16.113Z,10.10
2018-12-03T15:12:44.324Z,10.00
2018-12-03T15:15:12.503Z,10.00
2018-12-03T15:17:42.590Z,10.00
2018-12-03T15:20:13.907Z,10.00
2018-12-03T15:22:42.124Z,9.90
2018-12-03T15:25:12.530Z,9.90
2018-12-03T15:27:40.940Z,9.90
2018-12-03T15:30:10.642Z,9.90
2018-12-03T15:32:38.966Z,9.90
2018-12-03T15:35:09.061Z,9.80
2018-12-03T15:37:37.216Z,9.70
2018-12-03T15:40:08.618Z,9.70
2018-12-03T15:42:36.926Z,9.70
2018-12-03T15:45:07.396Z,9.70
2018-12-03T15:47:35.551Z,9.60
2018-12-03T15:50:04.045Z,9.60
2018-12-03T15:52:32.536Z,9.60
2018-12-03T15:55:00.771Z,9.60
2018-12-03T15:57:28.955Z,9.60
2018-12-03T15:59:57.208Z,9.60
2018-12-03T16:02:25.468Z,9.60
2018-12-03T16:04:53.721Z,9.70
2018-12-03T16:07:21.945Z,9.70
2018-12-03T16:09:50.278Z,9.70
2018-12-03T16:12:18.554Z,9.80
2018-12-03T16:14:46.786Z,9.70
2018-12-03T16:17:14.949Z,9.70
2018-12-03T16:19:43.494Z,9.70
2018-12-03T16:22:11.724Z,9.70
2018-12-03T16:24:39.974Z,9.60
2018-12-03T16:27:09.182Z,9.70
2018-12-03T16:29:37.408Z,9.60
2018-12-03T16:32:05.623Z,9.70
2018-12-03T16:34:34.085Z,9.70
2018-12-03T16:37:02.274Z,9.60
2018-12-03T16:39:30.461Z,9.60
2018-12-03T16:41:58.661Z,9.60
2018-12-03T16:44:26.878Z,9.60
2018-12-03T16:46:55.361Z,9.60
2018-12-03T16:49:23.599Z,9.70
2018-12-03T16:51:55.239Z,9.70
2018-12-03T16:54:24.073Z,9.70
2018-12-03T16:56:52.248Z,9.60
2018-12-03T16:59:20.534Z,9.50
2018-12-03T17:01:48.773Z,9.50
2018-12-03T17:04:16.957Z,9.60
2018-12-03T17:06:45.114Z,9.60
2018-12-03T17:09:13.778Z,9.70
2018-12-03T17:11:42.549Z,9.70
2018-12-03T17:14:10.695Z,9.70
2018-12-03T17:16:38.867Z,9.70
2018-12-03T17:19:07.171Z,9.70
2018-12-03T17:22:14.992Z,9.70
2018-12-03T17:24:44.400Z,9.70
2018-12-03T17:27:13.327Z,9.70
2018-12-03T17:29:41.479Z,9.70
2018-12-03T17:32:09.767Z,9.70
2018-12-03T17:34:38.048Z,9.70
2018-12-03T17:37:06.380Z,9.70
2018-12-03T17:39:34.696Z,9.80
2018-12-03T17:42:03.416Z,9.80
2018-12-03T17:44:31.658Z,9.80
2018-12-03T17:46:59.877Z,9.80
2018-12-03T17:49:28.106Z,9.80
2018-12-03T17:51:56.362Z,9.80
2018-12-03T17:54:24.568Z,9.80
2018-12-03T17:56:52.826Z,9.80
2018-12-03T17:59:21.150Z,9.80
2018-12-03T18:01:49.305Z,9.80
2018-12-03T18:04:17.526Z,9.80
2018-12-03T18:06:46.013Z,9.80
2018-12-03T18:09:14.186Z,9.80
2018-12-03T18:11:42.401Z,9.80
2018-12-03T18:14:10.651Z,9.80
2018-12-03T18:16:38.880Z,9.80
2018-12-03T18:19:07.090Z,9.80
2018-12-03T18:21:35.370Z,9.90
2018-12-03T18:24:03.607Z,9.90
2018-12-03T18:26:31.827Z,9.90
2018-12-03T18:29:00.031Z,9.90
2018-12-03T18:31:28.316Z,9.80
2018-12-03T18:33:56.470Z,9.80
2018-12-03T18:36:24.686Z,9.80
2018-12-03T18:39:00.767Z,9.70
2018-12-03T18:41:29.106Z,9.50
2018-12-03T18:43:58.167Z,9.40
2018-12-03T18:46:26.593Z,9.50
2018-12-03T18:49:00.633Z,9.50
2018-12-03T18:51:29.833Z,9.60
2018-12-03T18:54:01.566Z,9.60
2018-12-03T18:56:30.273Z,9.60
2018-12-03T18:59:00.686Z,9.60
2018-12-03T19:01:29.405Z,9.60
2018-12-03T19:03:57.582Z,9.60
2018-12-03T19:06:26.053Z,9.60
2018-12-03T19:08:57.636Z,9.50
2018-12-03T19:11:26.296Z,9.50
2018-12-03T19:13:55.541Z,9.50
2018-12-03T19:16:25.037Z,9.60
2018-12-03T19:18:53.300Z,9.60
2018-12-03T19:21:21.580Z,9.60
2018-12-03T19:23:50.073Z,9.50
2018-12-03T19:26:18.411Z,9.50
2018-12-03T19:28:46.776Z,9.50
2018-12-03T19:31:15.951Z,9.50
2018-12-03T19:33:44.166Z,9.60
2018-12-03T19:36:46.937Z,9.50
2018-12-03T19:39:14.398Z,9.40
2018-12-03T19:41:41.883Z,9.50
2018-12-03T19:44:09.410Z,9.50
2018-12-03T19:46:37.256Z,9.50
2018-12-03T19:49:05.249Z,9.50
2018-12-03T19:51:33.018Z,9.50
2018-12-03T19:54:00.461Z,9.50
2018-12-03T19:56:28.018Z,9.50
2018-12-03T19:58:55.484Z,9.40
2018-12-03T20:01:22.919Z,9.50
2018-12-03T20:03:50.383Z,9.40
2018-12-03T20:06:18.602Z,9.50
2018-12-03T20:08:46.054Z,9.50
2018-12-03T20:11:13.547Z,9.50
2018-12-03T20:13:41.105Z,9.50
2018-12-03T20:16:08.582Z,9.40
2018-12-03T20:18:36.259Z,9.30
2018-12-03T20:21:03.798Z,9.30
2018-12-03T20:23:31.395Z,9.30
2018-12-03T20:25:59.170Z,9.30
2018-12-03T20:28:27.229Z,9.30
2018-12-03T20:30:58.010Z,9.30
2018-12-03T20:33:25.548Z,9.20
2018-12-03T20:35:53.386Z,9.20
2018-12-03T20:38:20.995Z,9.10
2018-12-03T20:40:48.663Z,9.10
2018-12-03T20:43:16.877Z,9.10
2018-12-03T20:45:50.001Z,9.00
2018-12-03T20:48:18.284Z,9.00
2018-12-03T20:50:45.808Z,9.00
2018-12-03T20:53:13.367Z,9.00
2018-12-03T20:55:46.147Z,9.00
2018-12-03T20:58:13.775Z,8.90
2018-12-03T21:00:42.185Z,9.00
2018-12-03T21:03:09.618Z,9.00
2018-12-03T21:05:37.094Z,9.00
2018-12-03T21:08:04.577Z,9.00
2018-12-03T21:10:32.074Z,8.90
2018-12-03T21:12:59.538Z,9.00
2018-12-03T21:15:27.031Z,8.90
2018-12-03T21:17:54.501Z,8.90
2018-12-03T21:20:22.111Z,8.90
2018-12-03T21:22:49.543Z,9.00
2018-12-03T21:25:17.165Z,9.00
2018-12-03T21:27:45.594Z,9.00
2018-12-03T21:30:14.037Z,9.00
2018-12-03T21:32:41.482Z,9.00
2018-12-03T21:35:09.833Z,9.00
2018-12-03T21:37:37.415Z,9.00
2018-12-03T21:40:06.175Z,9.00
2018-12-03T21:42:34.609Z,9.00
2018-12-03T21:45:02.401Z,8.90
2018-12-03T21:47:29.911Z,9.00
2018-12-03T21:49:57.364Z,8.90
2018-12-03T21:52:24.934Z,8.90
2018-12-03T21:54:52.395Z,8.90
2018-12-03T21:57:19.846Z,8.90
2018-12-03T21:59:48.247Z,8.90
2018-12-03T22:02:15.672Z,8.90
2018-12-03T22:04:43.234Z,8.90
2018-12-03T22:07:10.688Z,8.90
2018-12-03T22:09:38.154Z,8.90
2018-12-03T22:12:09.582Z,8.80
2018-12-03T22:14:38.086Z,8.80
2018-12-03T22:17:05.548Z,8.80
2018-12-03T22:19:33.042Z,8.80
2018-12-03T22:22:00.499Z,8.80
2018-12-03T22:24:27.919Z,8.80
2018-12-03T22:26:55.392Z,8.80
2018-12-03T22:29:22.875Z,8.80
2018-12-03T22:31:50.406Z,8.80
2018-12-03T22:34:22.877Z,8.70
2018-12-03T22:36:47.504Z,8.70
2018-12-03T22:39:15.046Z,8.70
2018-12-03T22:41:42.483Z,8.70
2018-12-03T22:44:10.905Z,8.60
2018-12-03T22:46:38.342Z,8.60
2018-12-03T22:49:05.797Z,8.60
2018-12-03T22:51:33.517Z,8.60
2018-12-03T22:54:00.996Z,8.70
2018-12-03T22:56:28.438Z,8.70
2018-12-03T22:58:55.885Z,8.70
2018-12-03T23:01:23.394Z,8.70
2018-12-03T23:03:51.117Z,8.70
2018-12-03T23:06:18.957Z,8.70
2018-12-03T23:08:46.410Z,8.70
2018-12-03T23:11:13.942Z,8.70
2018-12-03T23:13:41.594Z,8.70
2018-12-03T23:16:09.072Z,8.70
2018-12-03T23:18:36.509Z,8.60
2018-12-03T23:21:03.978Z,8.60
2018-12-03T23:23:31.411Z,8.60
2018-12-03T23:25:59.158Z,8.60
2018-12-03T23:28:31.328Z,8.60
2018-12-03T23:30:58.797Z,8.60
2018-12-03T23:33:27.061Z,8.60
2018-12-03T23:35:54.490Z,8.60
2018-12-03T23:38:22.446Z,8.60
2018-12-03T23:40:49.889Z,8.50
2018-12-03T23:43:17.341Z,8.50
2018-12-03T23:45:44.815Z,8.50
2018-12-03T23:48:12.255Z,8.50
2018-12-03T23:50:40.136Z,8.50
2018-12-03T23:53:07.657Z,8.40
2018-12-03T23:55:35.904Z,8.30
2018-12-03T23:58:03.417Z,8.30
